Terminal Aerodrome Forecast
Issued by NWS

Home | Current Version | Previous Version | Graphics & Text | Print | Product List | Glossary On
Versions: 1 2 3 4 5 6 7 8 9 10 11 12 13 14
000
FTUS43 KLSX 250500
TAFCPS
TAF
KCPS 250530Z 2506/2606 15007KT P6SM OVC018
     FM250900 14008KT P6SM -SHRA VCTS OVC009CB
     FM251400 15007KT P6SM OVC012
     FM251900 16007KT P6SM VCTS BKN020CB
     FM252100 02010KT 5SM -RA BR OVC012=

USA.gov is the U.S. government's official web portal to all federal, state and local government web resources and services.